< Typhoon 202211 2022 Season Typhoon 202213 >
Typhoon 202212 (MUIFA)
General InformationTrack Information on Google MapsDetailed Wind InformationForecast History on Google MapsAccess Analytics MapList of All Images || NewsDisaster Info.JMA Disaster Info. XMLWeblogTrackbackTyphoon FrontTwiphoonTyphoon Now!Typhoon ImaginationResourceGoogle EarthGE AnimationAtom FeedGeoJSON
Detalied Best Track (Time Zone = UTC)
Year Month Day Hour Lat. Long. Pressure (hPa) Wind (kt) Class Image Chart
2022 9 7 06 17.6 136.1 1004 30 2 Image Chart
2022 9 7 09 17.4 135.5 1004 30 2 Image Chart
2022 9 7 12 17.3 135.4 1004 30 2 Image Chart
2022 9 7 15 17.1 134.7 1004 30 2 Image Chart
2022 9 7 18 17.0 133.8 1004 30 2 Image Chart
2022 9 7 21 17.0 133.5 1004 30 2 Image Chart
2022 9 8 00 16.5 132.6 1000 35 3 Image Chart
2022 9 8 03 16.5 132.4 1000 35 3 Image Chart
2022 9 8 06 17.1 131.8 1000 35 3 Image Chart
2022 9 8 09 17.2 131.4 1000 35 3 Image Chart
2022 9 8 12 17.1 130.8 998 40 3 Image Chart
2022 9 8 15 17.0 130.4 998 40 3 Image Chart
2022 9 8 18 17.1 130.1 994 45 3 Image Chart
2022 9 8 21 17.3 130.1 994 45 3 Image Chart
2022 9 9 00 17.5 129.8 994 45 3 Image Chart
2022 9 9 03 17.9 129.3 994 45 3 Image Chart
2022 9 9 06 18.8 128.7 994 45 3 Image Chart
2022 9 9 09 19.1 128.2 994 45 3 Image Chart
2022 9 9 12 19.4 127.5 985 55 4 Image Chart
2022 9 9 15 19.7 127.4 985 55 4 Image Chart
2022 9 9 18 19.9 126.8 985 55 4 Image Chart
2022 9 9 21 20.1 126.3 985 55 4 Image Chart
2022 9 10 00 20.5 126.0 975 65 5 Image Chart
2022 9 10 03 20.7 126.0 975 65 5 Image Chart
2022 9 10 06 21.1 125.8 970 70 5 Image Chart
2022 9 10 09 21.3 125.6 970 70 5 Image Chart
2022 9 10 12 21.7 125.5 970 70 5 Image Chart
2022 9 10 15 22.1 125.1 970 70 5 Image Chart
2022 9 10 18 22.2 124.9 950 85 5 Image Chart
2022 9 10 21 22.4 124.7 950 85 5 Image Chart
2022 9 11 00 22.6 124.4 950 85 5 Image Chart
2022 9 11 03 22.6 124.3 950 85 5 Image Chart
2022 9 11 06 22.9 124.4 950 85 5 Image Chart
2022 9 11 09 23.2 124.3 950 85 5 Image Chart
2022 9 11 12 23.4 124.3 950 85 5 Image Chart
2022 9 11 15 23.5 124.2 950 85 5 Image Chart
2022 9 11 18 23.7 124.2 950 85 5 Image Chart
2022 9 11 21 23.9 124.2 950 85 5 Image Chart
2022 9 12 00 24.0 124.2 955 80 5 Image Chart
2022 9 12 03 24.5 124.2 965 80 5 Image Chart
2022 9 12 06 24.8 123.9 965 75 5 Image Chart
2022 9 12 09 24.9 123.9 965 75 5 Image Chart
2022 9 12 12 24.9 124.0 965 75 5 Image Chart
2022 9 12 15 25.0 124.0 965 75 5 Image Chart
2022 9 12 18 25.2 124.0 965 75 5 Image Chart
2022 9 12 21 25.4 124.2 965 75 5 Image Chart
2022 9 13 00 25.7 124.2 955 80 5 Image Chart
2022 9 13 03 26.0 124.0 955 80 5 Image Chart
2022 9 13 06 26.1 123.9 955 80 5 Image Chart
2022 9 13 09 26.4 124.0 955 80 5 Image Chart
2022 9 13 12 26.7 124.0 955 80 5 Image Chart
2022 9 13 15 26.9 123.7 955 80 5 Image Chart
2022 9 13 18 27.2 123.5 955 80 5 Image Chart
2022 9 13 21 27.6 123.4 955 80 5 Image Chart
2022 9 14 00 27.8 123.3 955 80 5 Image Chart
2022 9 14 03 28.3 123.1 955 80 5 Image Chart
2022 9 14 06 28.7 122.9 955 80 5 Image Chart
2022 9 14 09 29.4 122.6 955 80 5 Image Chart
2022 9 14 12 29.8 122.4 955 80 5 Image Chart
2022 9 14 15 30.6 122.0 955 80 5 Image Chart
2022 9 14 18 31.3 121.6 975 70 5 Image Chart
2022 9 14 21 31.9 121.3 985 55 4 Image Chart
2022 9 15 00 32.7 121.0 985 50 4 Image Chart
2022 9 15 03 33.3 120.7 985 50 4 Image Chart
2022 9 15 06 34.0 120.5 990 45 3 Image Chart
2022 9 15 09 34.6 120.5 990 45 3 Image Chart
2022 9 15 12 35.1 120.3 992 40 3 Image Chart
2022 9 15 15 35.7 120.4 992 40 3 Image Chart
2022 9 15 18 36.4 120.6 992 40 3 Image Chart
2022 9 15 21 37.0 120.8 992 40 3 Image Chart
2022 9 16 00 38.0 121.0 994 40 6 Image Chart
Japan Meteorological Agency Best Track Data | Correction Date : 2022-09-16
< Typhoon 202211 2022 Season Typhoon 202213 >

Help